Terminal Aerodrome Forecast
Issued by NWS Mt. Holly, NJ

Home | Current Version | Previous Version | Text Only | Print | Product List | Glossary On
Versions: 1 2 3 4 5 6 7 8 9 10 11 12
000
FTUS41 KPHI 041131
TAFRDG
TAF
KRDG 041131Z 0412/0512 VRB02KT P6SM SKC
     FM041400 22007KT P6SM SKC
     FM041700 22012G22KT P6SM FEW060
     FM042300 20005KT P6SM SCT100
     FM050900 26004KT P6SM BKN080=

USA.gov is the U.S. government's official web portal to all federal, state and local government web resources and services.